Time;durP1;ratioP1;P1;durP2;ratioP2;P2;SDS_P1;SDS_P2;PMS_P1;PMS_P2;Temp;Humidity;BMP_temperature;BMP_pressure;BME280_temperature;BME280_humidity;BME280_pressure;Samples;Min_cycle;Max_cycle;Signal;HPM_P1;HPM_P2
2023/03/29 00:00:37;;;;;;;6.75;3.70;;;5.70;99.90;;;;;;5018334;28;20042;-88
2023/03/29 00:03:03;;;;;;;6.72;4.00;;;5.70;99.90;;;;;;5016059;28;20073;-87
2023/03/29 00:05:32;;;;;;;6.53;3.80;;;5.70;99.90;;;;;;5000602;28;20051;-89
2023/03/29 00:08:02;;;;;;;7.00;3.60;;;5.70;99.90;;;;;;5027380;28;20041;-88
2023/03/29 00:10:30;;;;;;;6.65;3.80;;;5.60;99.90;;;;;;5003632;28;20060;-88
2023/03/29 00:12:56;;;;;;;8.48;3.90;;;5.60;99.90;;;;;;5003093;28;20033;-88
2023/03/29 00:15:22;;;;;;;7.03;3.75;;;5.70;99.90;;;;;;5001311;28;20067;-88
2023/03/29 00:17:47;;;;;;;6.63;4.00;;;5.60;99.90;;;;;;5015760;28;20069;-88
2023/03/29 00:20:14;;;;;;;5.05;3.40;;;5.60;99.90;;;;;;5003510;28;20139;-87
2023/03/29 00:22:45;;;;;;;6.60;3.60;;;5.60;99.90;;;;;;5001242;28;20049;-89
2023/03/29 00:25:11;;;;;;;5.95;3.50;;;5.60;99.90;;;;;;5045006;28;20081;-88
2023/03/29 00:27:37;;;;;;;4.53;3.40;;;5.60;99.90;;;;;;5024973;28;20045;-88
2023/03/29 00:30:05;;;;;;;7.15;3.63;;;5.60;99.90;;;;;;5023293;28;20040;-88
2023/03/29 00:32:31;;;;;;;5.75;3.65;;;5.60;99.90;;;;;;5003393;28;20102;-88
2023/03/29 00:34:59;;;;;;;8.05;4.75;;;5.60;99.90;;;;;;5041836;28;20071;-88
2023/03/29 00:37:28;;;;;;;7.07;3.47;;;5.60;99.90;;;;;;5019484;28;20056;-88
2023/03/29 00:39:55;;;;;;;4.97;3.55;;;5.60;99.90;;;;;;5005605;28;20298;-88
2023/03/29 00:42:21;;;;;;;4.72;3.20;;;5.60;99.90;;;;;;5019601;28;20060;-89
2023/03/29 00:45:16;;;;;;;6.15;3.45;;;5.60;99.90;;;;;;5004946;28;20424;-89
2023/03/29 00:47:54;;;;;;;7.10;3.47;;;5.60;99.90;;;;;;5032202;28;20466;-88
2023/03/29 00:50:38;;;;;;;5.43;3.20;;;5.60;99.90;;;;;;5003158;28;20149;-89
2023/03/29 00:53:11;;;;;;;4.65;3.22;;;5.60;99.90;;;;;;5019347;28;20045;-88
2023/03/29 00:56:10;;;;;;;5.43;3.50;;;5.60;99.90;;;;;;5005832;28;20060;-88
2023/03/29 00:58:52;;;;;;;5.68;3.30;;;5.60;99.90;;;;;;5019280;28;20237;-89
2023/03/29 01:01:32;;;;;;;6.47;3.67;;;5.60;99.90;;;;;;5018259;28;20053;-88
2023/03/29 01:04:28;;;;;;;6.32;3.50;;;5.60;99.90;;;;;;5040241;28;20045;-89
2023/03/29 01:07:36;;;;;;;4.80;3.20;;;5.60;99.90;;;;;;5002275;28;20060;-89
2023/03/29 01:10:15;;;;;;;4.53;3.33;;;5.60;99.90;;;;;;5007377;28;20056;-88
2023/03/29 01:12:50;;;;;;;5.72;3.53;;;5.60;99.90;;;;;;5004077;28;20048;-89
2023/03/29 01:15:24;;;;;;;5.88;3.90;;;5.60;99.90;;;;;;5003694;28;20558;-88
2023/03/29 01:17:52;;;;;;;5.32;3.42;;;5.60;99.90;;;;;;5003931;28;20048;-89
2023/03/29 01:20:25;;;;;;;5.70;3.42;;;5.60;99.90;;;;;;5006734;28;20495;-88
2023/03/29 01:23:06;;;;;;;6.28;4.00;;;5.60;99.90;;;;;;5004399;28;20049;-88
2023/03/29 01:26:04;;;;;;;5.85;3.88;;;5.60;99.90;;;;;;5034787;28;20060;-89
2023/03/29 01:28:37;;;;;;;6.55;3.85;;;5.60;99.90;;;;;;5013992;28;20510;-89
2023/03/29 01:31:17;;;;;;;5.65;3.35;;;5.70;99.90;;;;;;5003839;28;20037;-89
2023/03/29 01:33:54;;;;;;;6.57;3.90;;;5.60;99.90;;;;;;5018767;28;20487;-88
2023/03/29 01:36:26;;;;;;;6.38;4.00;;;5.70;99.90;;;;;;5002122;28;20132;-88
2023/03/29 01:38:57;;;;;;;5.57;4.03;;;5.60;99.90;;;;;;5002390;28;20037;-88
2023/03/29 01:41:34;;;;;;;7.53;4.25;;;5.60;99.90;;;;;;5020880;28;20029;-89
2023/03/29 01:44:08;;;;;;;5.30;4.05;;;5.60;99.90;;;;;;5016793;28;20030;-88
2023/03/29 01:46:52;;;;;;;6.82;4.50;;;5.60;99.90;;;;;;5023713;28;20039;-88
2023/03/29 01:49:23;;;;;;;6.63;4.55;;;5.60;99.90;;;;;;5004069;28;20032;-89
2023/03/29 01:51:58;;;;;;;7.55;4.50;;;5.60;99.90;;;;;;5003072;28;20406;-89
2023/03/29 01:54:39;;;;;;;6.47;4.30;;;5.60;99.90;;;;;;5018631;28;20094;-88
2023/03/29 01:57:09;;;;;;;7.47;4.88;;;5.70;99.90;;;;;;5002383;28;20305;-88
2023/03/29 01:59:37;;;;;;;6.65;4.70;;;5.70;99.90;;;;;;5026411;28;20034;-89
2023/03/29 02:02:07;;;;;;;8.88;5.53;;;5.70;99.90;;;;;;5004174;28;20052;-87
2023/03/29 02:04:39;;;;;;;9.43;5.35;;;5.60;99.90;;;;;;5019556;28;20086;-89
2023/03/29 02:07:08;;;;;;;7.88;4.95;;;5.70;99.90;;;;;;5004426;28;20165;-89
2023/03/29 02:09:38;;;;;;;8.02;4.80;;;5.70;99.90;;;;;;5000276;28;20033;-89
2023/03/29 02:12:06;;;;;;;9.27;5.07;;;5.70;99.90;;;;;;5019496;28;20052;-89
2023/03/29 02:14:32;;;;;;;8.77;5.63;;;5.70;99.90;;;;;;5018357;28;20045;-89
2023/03/29 02:17:18;;;;;;;7.57;5.38;;;5.60;99.90;;;;;;5046427;28;20565;-89
2023/03/29 02:19:50;;;;;;;7.65;4.85;;;5.60;99.90;;;;;;5025171;28;20136;-88
2023/03/29 02:22:22;;;;;;;6.40;4.78;;;5.70;99.90;;;;;;5002050;28;20056;-89
2023/03/29 02:24:52;;;;;;;6.97;5.43;;;5.70;99.90;;;;;;5004410;28;20455;-88
2023/03/29 02:27:17;;;;;;;7.93;5.10;;;5.70;99.90;;;;;;5020362;28;20067;-89
2023/03/29 02:29:45;;;;;;;8.13;5.28;;;5.70;99.90;;;;;;5004821;28;20037;-89
2023/03/29 02:32:39;;;;;;;8.45;5.13;;;5.70;99.90;;;;;;5018941;28;20068;-89
2023/03/29 02:35:12;;;;;;;9.75;5.60;;;5.60;99.90;;;;;;5015852;28;20137;-88
2023/03/29 02:37:43;;;;;;;8.55;5.65;;;5.70;99.90;;;;;;4999714;28;20045;-88
2023/03/29 02:40:11;;;;;;;8.68;5.55;;;5.60;99.90;;;;;;5000044;28;20084;-89
2023/03/29 02:42:43;;;;;;;9.45;5.68;;;5.60;99.90;;;;;;5002105;28;20263;-88
2023/03/29 02:45:12;;;;;;;7.95;6.00;;;5.70;99.90;;;;;;5000677;28;20117;-88
2023/03/29 02:47:43;;;;;;;9.35;5.93;;;5.70;99.90;;;;;;5018420;28;20042;-89
2023/03/29 02:50:09;;;;;;;10.75;5.50;;;5.60;99.90;;;;;;5003951;28;20045;-88
2023/03/29 02:52:38;;;;;;;7.07;5.45;;;5.70;99.90;;;;;;5013040;28;20053;-88
2023/03/29 02:55:10;;;;;;;9.57;5.45;;;5.70;99.90;;;;;;5018788;28;20513;-88
2023/03/29 02:57:38;;;;;;;13.95;6.20;;;5.70;99.90;;;;;;5002163;28;20034;-89
2023/03/29 03:00:08;;;;;;;7.88;5.90;;;5.70;99.90;;;;;;5023425;28;20068;-89
2023/03/29 03:02:34;;;;;;;8.43;5.60;;;5.70;99.90;;;;;;5031232;28;20041;-88
2023/03/29 03:05:00;;;;;;;8.98;6.03;;;5.70;99.90;;;;;;5004707;28;20056;-88
2023/03/29 03:07:27;;;;;;;10.35;6.10;;;5.60;99.90;;;;;;5013409;28;20037;-89
2023/03/29 03:09:53;;;;;;;10.15;6.20;;;5.70;99.90;;;;;;5017090;28;20069;-88
2023/03/29 03:12:19;;;;;;;9.00;5.80;;;5.70;99.90;;;;;;5002229;28;20127;-89
2023/03/29 03:14:45;;;;;;;8.85;5.68;;;5.70;99.90;;;;;;5019445;28;20554;-89
2023/03/29 03:17:10;;;;;;;9.63;6.00;;;5.70;99.90;;;;;;5044738;28;20087;-88
2023/03/29 03:19:37;;;;;;;8.45;6.20;;;5.70;99.90;;;;;;5002088;28;20767;-89
2023/03/29 03:22:04;;;;;;;11.25;6.00;;;5.70;99.90;;;;;;5042956;28;20121;-89
2023/03/29 03:24:33;;;;;;;8.63;6.22;;;5.70;99.90;;;;;;5018137;28;20064;-89
2023/03/29 03:26:59;;;;;;;8.82;5.50;;;5.70;99.90;;;;;;5018554;28;20060;-89
2023/03/29 03:29:25;;;;;;;9.93;5.78;;;5.70;99.90;;;;;;5003007;28;20029;-89
2023/03/29 03:31:51;;;;;;;10.65;5.93;;;5.70;99.90;;;;;;5003376;28;20053;-87
2023/03/29 03:34:18;;;;;;;7.20;5.88;;;5.70;99.90;;;;;;5002666;28;20068;-89
2023/03/29 03:36:46;;;;;;;8.73;5.90;;;5.70;99.90;;;;;;5016717;28;20054;-89
2023/03/29 03:39:12;;;;;;;9.65;6.13;;;5.70;99.90;;;;;;5016858;28;20049;-88
2023/03/29 03:41:38;;;;;;;9.45;6.55;;;5.70;99.90;;;;;;5016959;28;20602;-89
2023/03/29 03:44:04;;;;;;;9.45;6.63;;;5.80;99.90;;;;;;5034862;28;20575;-89
2023/03/29 03:46:30;;;;;;;8.82;6.30;;;5.70;99.90;;;;;;5001232;28;20037;-88
2023/03/29 03:48:56;;;;;;;7.82;6.10;;;5.80;99.90;;;;;;5017133;28;20503;-89
2023/03/29 03:51:22;;;;;;;10.27;6.82;;;5.80;99.90;;;;;;5026539;28;20119;-88
2023/03/29 03:53:48;;;;;;;10.38;6.63;;;5.70;99.90;;;;;;5018504;28;20100;-89
2023/03/29 03:56:15;;;;;;;8.98;7.20;;;5.80;99.90;;;;;;5045438;28;20036;-89
2023/03/29 03:58:40;;;;;;;10.00;6.97;;;5.80;99.90;;;;;;5022819;28;20038;-88
2023/03/29 04:01:07;;;;;;;9.10;6.90;;;5.80;99.90;;;;;;5021104;28;20052;-89
2023/03/29 04:03:33;;;;;;;10.77;7.05;;;5.80;99.90;;;;;;5008715;28;20049;-88
2023/03/29 04:06:00;;;;;;;11.13;7.00;;;5.80;99.90;;;;;;5005223;28;20037;-89
2023/03/29 04:08:26;;;;;;;9.95;7.13;;;5.80;99.90;;;;;;5005040;28;20108;-89
2023/03/29 04:10:53;;;;;;;11.63;7.18;;;5.90;99.90;;;;;;5006773;28;20057;-89
2023/03/29 04:13:19;;;;;;;10.65;7.10;;;5.80;99.90;;;;;;5006115;28;20040;-89
2023/03/29 04:15:48;;;;;;;11.48;7.50;;;5.80;99.90;;;;;;5045281;28;20486;-88
2023/03/29 04:18:15;;;;;;;9.90;7.40;;;5.90;99.90;;;;;;5006519;28;20049;-88
2023/03/29 04:20:42;;;;;;;11.27;7.97;;;5.80;99.90;;;;;;5005756;28;20572;-88
2023/03/29 04:23:08;;;;;;;13.80;7.63;;;5.80;99.90;;;;;;5021483;28;20068;-88
2023/03/29 04:25:34;;;;;;;13.02;7.97;;;5.90;99.90;;;;;;5027411;28;20556;-89
2023/03/29 04:28:00;;;;;;;13.40;7.93;;;5.90;99.90;;;;;;5022401;28;20037;-88
2023/03/29 04:30:26;;;;;;;10.43;7.30;;;5.90;99.90;;;;;;5020288;28;20671;-89
2023/03/29 04:32:51;;;;;;;12.43;8.05;;;5.90;99.90;;;;;;5005575;28;20049;-89
2023/03/29 04:35:17;;;;;;;12.07;7.18;;;5.90;99.90;;;;;;5003409;28;20128;-89
2023/03/29 04:37:43;;;;;;;13.70;8.07;;;5.90;99.90;;;;;;5026357;28;20136;-88
2023/03/29 04:40:13;;;;;;;12.07;8.20;;;5.90;99.90;;;;;;5049675;28;20047;-88
2023/03/29 04:42:44;;;;;;;11.50;7.70;;;5.90;99.90;;;;;;5004463;28;20164;-89
2023/03/29 04:45:12;;;;;;;11.63;8.38;;;5.90;99.90;;;;;;5018259;28;20033;-89
2023/03/29 04:47:39;;;;;;;11.77;8.20;;;6.00;99.90;;;;;;5003687;28;20095;-89
2023/03/29 04:50:08;;;;;;;10.32;8.10;;;6.00;99.90;;;;;;5021244;28;20044;-88
2023/03/29 04:52:34;;;;;;;13.70;8.48;;;6.00;99.90;;;;;;5002164;28;20045;-88
2023/03/29 04:55:01;;;;;;;13.43;8.35;;;6.00;99.90;;;;;;5005764;28;20033;-89
2023/03/29 04:57:27;;;;;;;15.27;8.80;;;6.00;99.90;;;;;;5033800;28;20184;-88
2023/03/29 04:59:54;;;;;;;13.45;8.93;;;6.00;99.90;;;;;;5005273;28;20042;-88
2023/03/29 05:02:20;;;;;;;10.57;8.15;;;6.00;99.90;;;;;;5003236;28;20044;-89
2023/03/29 05:04:46;;;;;;;12.10;8.15;;;6.00;99.90;;;;;;5025172;28;20033;-88
2023/03/29 05:07:14;;;;;;;12.50;8.35;;;6.00;99.90;;;;;;5017604;28;20349;-89
2023/03/29 05:09:40;;;;;;;13.15;8.07;;;6.00;99.90;;;;;;5049470;28;20034;-88
2023/03/29 05:12:07;;;;;;;17.80;8.90;;;6.10;99.90;;;;;;5000211;28;20483;-89
2023/03/29 05:14:32;;;;;;;15.50;8.75;;;6.10;99.90;;;;;;5039880;28;20140;-88
2023/03/29 05:16:58;;;;;;;12.60;8.38;;;6.10;99.90;;;;;;5001463;28;20462;-88
2023/03/29 05:19:24;;;;;;;10.55;8.07;;;6.10;99.90;;;;;;5005590;28;20067;-88
2023/03/29 05:21:52;;;;;;;12.45;8.18;;;6.10;99.90;;;;;;5044887;28;20131;-89
2023/03/29 05:24:18;;;;;;;15.45;8.70;;;6.10;99.90;;;;;;5017376;28;20273;-88
2023/03/29 05:26:46;;;;;;;10.70;8.07;;;6.20;99.90;;;;;;5002911;28;20095;-89
2023/03/29 05:29:12;;;;;;;13.80;8.05;;;6.20;99.90;;;;;;5017317;28;20037;-89
2023/03/29 05:31:38;;;;;;;15.77;8.77;;;6.20;99.90;;;;;;5024887;28;20071;-89
2023/03/29 05:34:05;;;;;;;14.30;8.50;;;6.20;99.90;;;;;;5001380;28;20033;-89
2023/03/29 05:36:34;;;;;;;14.30;9.68;;;6.20;99.90;;;;;;5019449;28;20429;-89
2023/03/29 05:39:00;;;;;;;13.23;8.57;;;6.20;99.90;;;;;;5047790;28;20102;-88
2023/03/29 05:41:26;;;;;;;12.75;8.38;;;6.20;99.90;;;;;;4994347;28;20124;-87
2023/03/29 05:43:52;;;;;;;12.60;8.98;;;6.30;99.90;;;;;;5017741;28;20144;-89
2023/03/29 05:46:36;;;;;;;11.90;8.75;;;6.30;99.90;;;;;;5018735;28;20057;-89
2023/03/29 05:49:05;;;;;;;11.95;8.60;;;6.30;99.90;;;;;;5003570;28;20041;-89
2023/03/29 05:51:32;;;;;;;12.85;9.00;;;6.30;99.90;;;;;;5046081;28;20259;-89
2023/03/29 05:53:57;;;;;;;11.55;8.55;;;6.30;99.90;;;;;;5003076;28;20438;-89
2023/03/29 05:56:23;;;;;;;17.13;9.43;;;6.30;99.90;;;;;;5019610;28;20046;-89
2023/03/29 05:58:52;;;;;;;12.18;9.15;;;6.30;99.90;;;;;;5034808;28;20029;-89
2023/03/29 06:01:21;;;;;;;13.90;9.25;;;6.30;99.90;;;;;;5004604;28;20274;-88
2023/03/29 06:03:47;;;;;;;14.57;8.73;;;6.30;99.90;;;;;;5006742;28;20037;-89
2023/03/29 06:06:15;;;;;;;15.80;9.63;;;6.40;99.90;;;;;;5026476;28;20037;-89
2023/03/29 06:08:41;;;;;;;16.85;9.45;;;6.40;99.90;;;;;;5048332;28;20033;-89
2023/03/29 06:11:07;;;;;;;17.60;10.43;;;6.40;99.90;;;;;;5003312;28;20041;-89
2023/03/29 06:13:37;;;;;;;13.77;9.50;;;6.40;99.90;;;;;;5002586;28;20064;-89
2023/03/29 06:16:04;;;;;;;15.48;10.32;;;6.50;99.90;;;;;;5017892;28;20120;-89
2023/03/29 06:18:34;;;;;;;15.27;9.70;;;6.50;99.90;;;;;;5003342;28;20041;-89
2023/03/29 06:21:03;;;;;;;13.95;10.38;;;6.50;99.90;;;;;;4998132;28;20155;-88
2023/03/29 06:23:29;;;;;;;14.43;10.27;;;6.50;99.90;;;;;;5016775;28;20146;-88
2023/03/29 06:25:55;;;;;;;15.80;10.40;;;6.50;99.90;;;;;;5018166;28;20033;-89
2023/03/29 06:28:22;;;;;;;16.50;9.98;;;6.60;99.90;;;;;;5019337;28;20047;-89
2023/03/29 06:30:49;;;;;;;18.13;10.43;;;6.60;99.90;;;;;;5002926;28;20124;-89
2023/03/29 06:33:21;;;;;;;17.95;11.20;;;6.60;99.90;;;;;;5003714;28;20553;-89
2023/03/29 06:35:48;;;;;;;19.92;10.07;;;6.70;99.90;;;;;;5002591;28;20112;-89
2023/03/29 06:38:15;;;;;;;15.70;10.02;;;6.70;99.90;;;;;;5022635;28;20056;-89
2023/03/29 06:40:43;;;;;;;20.73;11.15;;;6.80;99.90;;;;;;5019031;28;20029;-88
2023/03/29 06:43:09;;;;;;;17.10;11.38;;;6.90;99.90;;;;;;5020592;28;20046;-89
2023/03/29 06:45:36;;;;;;;16.63;10.35;;;6.80;99.90;;;;;;5002088;28;20076;-89
2023/03/29 06:48:06;;;;;;;15.32;10.65;;;6.90;99.90;;;;;;5018692;28;20040;-89
2023/03/29 06:50:33;;;;;;;17.77;11.82;;;7.00;99.90;;;;;;5001885;28;20038;-89
2023/03/29 06:52:59;;;;;;;15.80;11.40;;;6.90;99.90;;;;;;4999995;28;20033;-89
2023/03/29 06:55:25;;;;;;;21.67;11.60;;;7.00;99.90;;;;;;5000138;28;20041;-89
2023/03/29 06:57:52;;;;;;;20.73;11.07;;;7.10;99.90;;;;;;5002914;28;20092;-89
2023/03/29 07:00:26;;;;;;;19.08;12.38;;;7.10;99.90;;;;;;5011264;28;20160;-89
2023/03/29 07:02:53;;;;;;;17.83;11.40;;;7.10;99.90;;;;;;5019587;28;20052;-89
2023/03/29 07:05:20;;;;;;;15.73;10.75;;;7.10;99.90;;;;;;5017434;28;20052;-88
2023/03/29 07:10:36;;;;;;;17.08;10.10;;;7.20;99.90;;;;;;5017735;28;20072;-89
2023/03/29 07:13:07;;;;;;;18.15;10.57;;;7.30;99.90;;;;;;5002394;28;20072;-89
2023/03/29 07:15:34;;;;;;;17.27;11.10;;;7.40;99.90;;;;;;5017574;28;20033;-89
2023/03/29 07:18:03;;;;;;;17.58;11.13;;;7.40;99.90;;;;;;5001839;28;20106;-89
2023/03/29 07:20:29;;;;;;;14.10;10.32;;;7.40;99.90;;;;;;4999032;28;20450;-89
2023/03/29 07:22:56;;;;;;;13.80;10.68;;;7.50;99.90;;;;;;5000811;28;20061;-89
2023/03/29 07:25:23;;;;;;;16.05;10.50;;;7.60;99.90;;;;;;5000576;28;20471;-89
2023/03/29 07:27:50;;;;;;;15.48;10.30;;;7.60;99.90;;;;;;5003748;28;20461;-89
2023/03/29 07:30:28;;;;;;;15.15;9.70;;;7.60;99.90;;;;;;5032520;28;20040;-89
2023/03/29 07:32:56;;;;;;;12.98;9.85;;;7.60;99.90;;;;;;5015542;28;20037;-88
2023/03/29 07:35:22;;;;;;;15.98;9.27;;;7.60;99.90;;;;;;5002914;28;20095;-89
2023/03/29 07:37:48;;;;;;;15.63;10.02;;;7.60;99.90;;;;;;5027967;28;20383;-88
2023/03/29 07:40:22;;;;;;;13.93;10.00;;;7.60;99.90;;;;;;5000800;28;20039;-89
2023/03/29 07:42:55;;;;;;;18.00;10.43;;;7.60;99.90;;;;;;5000302;28;20121;-89
2023/03/29 07:45:24;;;;;;;15.60;10.35;;;7.70;99.90;;;;;;5003428;28;20322;-88
2023/03/29 07:47:57;;;;;;;13.63;9.93;;;7.70;99.90;;;;;;5017471;28;20045;-87
2023/03/29 07:50:26;;;;;;;14.32;10.50;;;7.80;99.90;;;;;;5002629;28;20112;-88
2023/03/29 07:52:52;;;;;;;12.85;10.02;;;7.80;99.90;;;;;;5018281;28;20056;-89
2023/03/29 07:55:18;;;;;;;12.25;9.50;;;7.80;99.90;;;;;;5017722;28;20045;-89
2023/03/29 07:57:44;;;;;;;14.75;9.45;;;7.80;99.90;;;;;;5017893;28;20604;-89
2023/03/29 08:00:14;;;;;;;14.15;9.60;;;7.90;99.90;;;;;;5019639;28;20128;-89
2023/03/29 08:02:49;;;;;;;16.88;9.57;;;7.80;99.90;;;;;;4999642;28;20053;-89
2023/03/29 08:05:16;;;;;;;12.57;9.07;;;7.90;99.90;;;;;;5005887;28;20095;-89
2023/03/29 08:07:45;;;;;;;14.70;8.68;;;8.00;99.90;;;;;;5003676;28;20041;-89
2023/03/29 08:10:14;;;;;;;14.05;8.80;;;8.00;99.90;;;;;;5001947;28;20045;-88
2023/03/29 08:12:41;;;;;;;11.18;8.70;;;8.10;99.90;;;;;;5004504;28;20056;-89
2023/03/29 08:15:08;;;;;;;11.73;8.50;;;8.20;99.90;;;;;;5015324;28;20177;-89
2023/03/29 08:17:35;;;;;;;12.60;8.40;;;8.20;99.90;;;;;;5000183;28;20056;-89
2023/03/29 08:20:01;;;;;;;13.48;9.05;;;8.30;99.90;;;;;;5002104;28;20037;-89
2023/03/29 08:22:27;;;;;;;10.93;8.32;;;8.40;99.90;;;;;;5015972;28;20085;-89
2023/03/29 08:24:53;;;;;;;17.42;9.07;;;8.50;99.90;;;;;;5002419;28;20063;-89
2023/03/29 08:27:19;;;;;;;12.88;8.27;;;8.50;99.90;;;;;;5033874;28;20111;-88
2023/03/29 08:29:45;;;;;;;12.05;8.07;;;8.50;99.90;;;;;;5002942;28;20065;-89
2023/03/29 08:32:11;;;;;;;11.57;8.32;;;8.50;99.90;;;;;;5046339;28;20076;-89
2023/03/29 08:34:37;;;;;;;12.35;8.18;;;8.70;99.90;;;;;;4999729;28;20046;-89
2023/03/29 08:37:03;;;;;;;11.63;8.95;;;8.70;99.90;;;;;;5015609;28;20062;-89
2023/03/29 08:39:30;;;;;;;12.88;9.07;;;9.10;99.90;;;;;;5000885;28;20116;-89
2023/03/29 08:41:59;;;;;;;14.55;9.20;;;9.30;99.90;;;;;;5003877;28;20057;-89
2023/03/29 08:44:53;;;;;;;10.40;8.43;;;9.30;99.90;;;;;;5006613;28;20507;-89
2023/03/29 08:47:33;;;;;;;12.93;8.38;;;9.50;99.90;;;;;;5050873;28;20397;-89
2023/03/29 08:49:59;;;;;;;11.13;8.25;;;9.30;99.90;;;;;;5003276;28;20559;-89
2023/03/29 08:52:35;;;;;;;12.68;8.43;;;9.40;99.90;;;;;;5046841;28;20310;-89
2023/03/29 08:55:07;;;;;;;12.05;7.75;;;9.50;99.90;;;;;;5005652;28;20275;-89
2023/03/29 08:57:44;;;;;;;11.98;8.50;;;9.40;99.90;;;;;;5007791;28;20041;-88
2023/03/29 09:00:20;;;;;;;12.23;8.60;;;9.50;99.90;;;;;;5020683;28;20041;-88
2023/03/29 09:02:48;;;;;;;10.70;7.60;;;9.70;99.90;;;;;;5019130;28;20045;-89
2023/03/29 09:05:13;;;;;;;10.45;7.85;;;9.60;99.90;;;;;;5021437;28;20045;-90
2023/03/29 09:07:42;;;;;;;12.35;8.32;;;9.60;99.90;;;;;;5002264;28;20616;-89
2023/03/29 09:10:14;;;;;;;16.23;8.52;;;9.70;99.90;;;;;;5009947;28;20044;-89
2023/03/29 09:12:49;;;;;;;11.38;7.88;;;9.70;99.90;;;;;;5041620;28;20041;-89
2023/03/29 09:15:29;;;;;;;12.93;8.70;;;9.70;99.90;;;;;;5003960;28;20057;-89
2023/03/29 09:18:20;;;;;;;10.35;8.55;;;9.80;99.90;;;;;;5018158;28;20072;-89
2023/03/29 09:20:51;;;;;;;16.00;9.20;;;10.00;99.90;;;;;;5004033;28;20082;-88
2023/03/29 09:23:30;;;;;;;10.80;8.15;;;10.20;99.90;;;;;;5017921;28;20037;-89
2023/03/29 09:26:19;;;;;;;12.90;9.20;;;10.40;99.90;;;;;;5021080;28;20049;-89
2023/03/29 09:29:00;;;;;;;11.70;8.35;;;10.70;99.90;;;;;;5020049;28;20041;-89
2023/03/29 09:31:37;;;;;;;13.52;8.70;;;10.90;99.90;;;;;;5003843;28;20026;-88
2023/03/29 09:34:17;;;;;;;12.70;8.38;;;11.00;99.90;;;;;;5001219;28;20049;-89
2023/03/29 09:36:51;;;;;;;12.38;7.60;;;10.90;99.90;;;;;;5026141;28;20127;-87
2023/03/29 09:39:20;;;;;;;9.20;7.45;;;11.00;99.90;;;;;;5040257;28;20135;-89
2023/03/29 09:41:57;;;;;;;13.63;7.68;;;11.00;99.90;;;;;;5003170;28;20079;-89
2023/03/29 09:44:28;;;;;;;10.82;7.95;;;11.10;99.90;;;;;;5003461;28;20057;-89
2023/03/29 09:47:00;;;;;;;17.65;9.10;;;11.10;99.90;;;;;;5001581;28;20037;-89
2023/03/29 09:49:31;;;;;;;12.30;8.57;;;11.30;99.90;;;;;;5018162;28;20092;-88
2023/03/29 09:52:03;;;;;;;14.32;8.75;;;11.30;99.90;;;;;;5005376;28;20139;-89
2023/03/29 09:54:29;;;;;;;11.55;8.23;;;11.10;99.90;;;;;;5004792;28;20041;-89
2023/03/29 09:56:54;;;;;;;13.05;8.13;;;10.90;99.90;;;;;;5003887;28;20041;-89
2023/03/29 09:59:20;;;;;;;13.13;8.80;;;10.90;99.90;;;;;;5018954;28;20136;-89
2023/03/29 10:01:46;;;;;;;13.52;8.05;;;11.20;99.90;;;;;;5003027;28;20041;-89
2023/03/29 10:04:12;;;;;;;13.05;8.48;;;11.00;99.90;;;;;;4998182;28;20041;-89
2023/03/29 10:06:48;;;;;;;13.18;8.65;;;11.00;99.90;;;;;;5021190;28;20749;-89
2023/03/29 10:09:18;;;;;;;12.68;9.18;;;11.00;99.90;;;;;;5003216;28;20045;-88
2023/03/29 10:11:52;;;;;;;15.15;9.00;;;11.00;99.90;;;;;;5022129;28;20362;-89
2023/03/29 10:14:20;;;;;;;15.23;9.43;;;11.20;99.90;;;;;;5001535;28;20211;-88
2023/03/29 10:16:53;;;;;;;14.35;9.13;;;11.30;99.90;;;;;;5001505;28;20037;-89
2023/03/29 10:19:33;;;;;;;14.15;9.15;;;11.50;99.90;;;;;;5003392;28;20067;-89
2023/03/29 10:22:01;;;;;;;13.80;8.35;;;11.30;99.90;;;;;;5015003;28;20045;-89
2023/03/29 10:24:27;;;;;;;13.15;8.88;;;11.50;99.90;;;;;;5021344;28;20052;-89
2023/03/29 10:27:00;;;;;;;14.95;9.70;;;11.40;99.90;;;;;;5005638;28;20037;-89
2023/03/29 10:29:33;;;;;;;17.85;9.05;;;11.60;99.90;;;;;;5020135;28;20357;-90
2023/03/29 10:31:59;;;;;;;15.90;9.48;;;11.70;99.90;;;;;;5018524;28;20041;-87
2023/03/29 10:34:26;;;;;;;14.88;9.93;;;11.60;99.90;;;;;;5018697;28;20059;-88
2023/03/29 10:37:00;;;;;;;16.17;9.90;;;11.50;99.90;;;;;;4999959;28;20363;-89
2023/03/29 10:39:32;;;;;;;11.40;8.90;;;11.60;99.90;;;;;;5004140;28;20108;-89
2023/03/29 10:41:59;;;;;;;13.82;10.02;;;11.90;99.90;;;;;;5005208;28;20057;-90
2023/03/29 10:44:30;;;;;;;14.70;10.00;;;12.10;99.90;;;;;;5022665;28;20068;-89
2023/03/29 10:47:07;;;;;;;16.27;10.20;;;11.90;99.90;;;;;;5013394;28;20042;-87
2023/03/29 10:49:45;;;;;;;13.15;10.10;;;11.90;99.90;;;;;;5001180;28;20037;-89
2023/03/29 10:52:13;;;;;;;14.15;10.02;;;12.00;99.90;;;;;;5040611;28;20071;-88
2023/03/29 10:54:45;;;;;;;16.63;10.65;;;12.00;99.90;;;;;;5002426;28;20049;-88
2023/03/29 10:57:15;;;;;;;14.20;10.32;;;12.20;99.90;;;;;;5002019;28;20040;-89
2023/03/29 10:59:51;;;;;;;17.30;11.02;;;12.30;99.90;;;;;;5017769;28;20047;-88
2023/03/29 11:02:38;;;;;;;15.13;10.75;;;12.60;99.90;;;;;;5019005;28;20459;-88
2023/03/29 11:05:40;;;;;;;16.83;9.82;;;12.50;99.90;;;;;;5000475;28;20042;-88
2023/03/29 11:08:27;;;;;;;15.77;10.65;;;12.70;99.90;;;;;;4999607;28;20395;-89
2023/03/29 11:10:57;;;;;;;15.70;10.68;;;12.80;99.90;;;;;;5022927;28;20110;-88
2023/03/29 11:14:01;;;;;;;12.70;10.30;;;13.10;99.90;;;;;;4998933;28;20064;-88
2023/03/29 11:16:45;;;;;;;13.57;10.15;;;13.10;99.90;;;;;;5017481;28;20596;-88
2023/03/29 11:19:41;;;;;;;16.73;11.10;;;13.60;99.90;;;;;;5018249;28;20116;-88
2023/03/29 11:22:25;;;;;;;14.98;11.07;;;13.70;99.90;;;;;;4999350;28;20120;-88
2023/03/29 11:25:31;;;;;;;18.70;11.60;;;13.70;99.90;;;;;;5017543;28;20113;-89
2023/03/29 11:28:18;;;;;;;14.63;11.60;;;13.90;99.90;;;;;;4960839;28;20118;-88
2023/03/29 11:30:55;;;;;;;13.77;10.57;;;13.80;99.90;;;;;;5015980;28;20041;-88
2023/03/29 11:33:50;;;;;;;14.63;10.88;;;13.60;99.90;;;;;;4998256;28;20049;-88
2023/03/29 11:36:38;;;;;;;15.00;10.82;;;13.60;99.90;;;;;;5016890;28;20646;-88
2023/03/29 11:39:10;;;;;;;14.55;10.77;;;13.50;99.90;;;;;;5013668;28;20117;-88
2023/03/29 11:41:47;;;;;;;12.55;10.55;;;13.40;99.90;;;;;;4998195;28;20045;-88
2023/03/29 11:44:30;;;;;;;14.40;10.38;;;13.60;99.90;;;;;;5017389;28;20351;-89
2023/03/29 11:47:01;;;;;;;15.93;10.48;;;13.20;99.90;;;;;;5027381;28;20050;-89
2023/03/29 11:49:36;;;;;;;12.60;10.15;;;13.40;99.90;;;;;;5015970;28;20096;-88
2023/03/29 11:52:18;;;;;;;12.52;9.93;;;13.70;99.90;;;;;;5002665;28;20041;-89
2023/03/29 11:55:02;;;;;;;13.52;10.00;;;13.70;99.90;;;;;;5028459;28;20057;-88
2023/03/29 11:57:43;;;;;;;12.93;10.20;;;13.60;99.90;;;;;;5016433;28;20080;-88
2023/03/29 12:00:22;;;;;;;12.95;10.60;;;13.80;99.90;;;;;;5019126;28;20406;-88
2023/03/29 12:02:57;;;;;;;14.75;10.50;;;14.00;99.90;;;;;;5016301;28;20103;-88
2023/03/29 12:05:30;;;;;;;11.27;9.40;;;14.10;99.90;;;;;;5018376;28;20066;-88
2023/03/29 12:08:05;;;;;;;12.45;10.05;;;14.30;99.90;;;;;;5022753;28;20169;-88
2023/03/29 12:10:56;;;;;;;12.68;9.70;;;14.20;99.90;;;;;;5001163;28;20045;-89
2023/03/29 12:13:32;;;;;;;11.38;9.07;;;14.40;99.90;;;;;;5001671;28;20577;-88
2023/03/29 12:16:13;;;;;;;14.35;10.18;;;14.70;99.90;;;;;;5023164;28;20045;-88
2023/03/29 12:18:44;;;;;;;12.43;9.50;;;14.90;99.90;;;;;;5021513;28;20341;-89
2023/03/29 12:21:21;;;;;;;11.55;8.85;;;15.20;99.90;;;;;;5017903;28;20046;-88
2023/03/29 12:23:48;;;;;;;11.63;9.10;;;15.30;99.90;;;;;;5023591;28;20124;-89
2023/03/29 12:26:19;;;;;;;12.23;9.65;;;15.80;99.90;;;;;;5005334;28;20521;-88
2023/03/29 12:28:54;;;;;;;12.15;9.45;;;15.80;99.90;;;;;;5022131;28;20455;-88
2023/03/29 12:31:51;;;;;;;10.40;8.65;;;16.00;99.90;;;;;;5037485;28;20036;-89
2023/03/29 12:34:35;;;;;;;9.43;8.07;;;16.10;99.90;;;;;;5021348;28;20119;-88
2023/03/29 12:37:22;;;;;;;10.77;7.95;;;15.70;1.00;;;;;;5018844;28;20608;-88
2023/03/29 12:39:50;;;;;;;11.52;8.30;;;15.40;1.00;;;;;;5019017;28;20487;-88
2023/03/29 12:42:21;;;;;;;12.20;8.90;;;15.20;99.90;;;;;;5021036;28;20063;-89
2023/03/29 12:44:57;;;;;;;10.77;8.32;;;15.20;99.90;;;;;;5024685;28;20104;-88
2023/03/29 12:47:26;;;;;;;11.30;8.98;;;14.70;99.90;;;;;;5005201;28;20034;-88
2023/03/29 12:49:57;;;;;;;12.13;8.40;;;14.80;99.90;;;;;;5021305;28;20064;-89
2023/03/29 12:52:34;;;;;;;9.68;8.23;;;14.90;1.00;;;;;;5019361;28;20132;-88
2023/03/29 12:55:19;;;;;;;11.35;8.43;;;15.00;99.90;;;;;;5018941;28;20478;-88
2023/03/29 12:58:05;;;;;;;9.18;7.72;;;14.80;1.00;;;;;;5020066;28;20144;-88
2023/03/29 13:00:42;;;;;;;11.85;7.43;;;15.00;99.90;;;;;;5005352;28;20465;-88
2023/03/29 13:03:26;;;;;;;11.63;8.00;;;15.10;99.90;;;;;;5003718;28;20049;-88
2023/03/29 13:06:01;;;;;;;11.07;7.75;;;15.20;99.90;;;;;;5037312;28;20498;-87
2023/03/29 13:08:38;;;;;;;12.27;7.70;;;15.40;99.90;;;;;;5018364;28;20108;-88
2023/03/29 13:11:05;;;;;;;10.40;8.18;;;15.30;75.30;;;;;;5005976;28;20376;-88